Time;durP1;ratioP1;P1;durP2;ratioP2;P2;SDS_P1;SDS_P2;PMS_P1;PMS_P2;Temp;Humidity;BMP_temperature;BMP_pressure;BME280_temperature;BME280_humidity;BME280_pressure;Samples;Min_cycle;Max_cycle;Signal;HPM_P1;HPM_P2
2022/11/28 00:00:07;;;;;;;19.97;12.00;;;10.00;56.10;;;;;;5095691;27;20501;-87
2022/11/28 00:02:39;;;;;;;19.13;11.00;;;10.00;55.50;;;;;;5096941;27;20905;-85
2022/11/28 00:05:09;;;;;;;16.50;10.57;;;9.90;56.90;;;;;;5116821;27;20536;-84
2022/11/28 00:07:37;;;;;;;13.30;10.30;;;10.00;56.60;;;;;;5114700;27;20549;-85
2022/11/28 00:10:04;;;;;;;17.10;10.67;;;10.10;56.50;;;;;;5073881;27;20497;-85
2022/11/28 00:12:34;;;;;;;23.27;11.33;;;10.10;56.30;;;;;;5115533;27;20504;-86
2022/11/28 00:15:01;;;;;;;15.43;9.90;;;10.20;56.30;;;;;;5096881;27;20526;-86
2022/11/28 00:17:28;;;;;;;20.63;11.17;;;10.20;56.10;;;;;;5090759;27;20450;-86
2022/11/28 00:19:55;;;;;;;16.17;10.90;;;10.30;56.00;;;;;;5095514;27;20548;-86
2022/11/28 00:22:22;;;;;;;20.43;11.00;;;10.30;56.50;;;;;;5099752;27;20503;-87
2022/11/28 00:24:50;;;;;;;14.73;9.80;;;10.30;55.80;;;;;;5081099;27;20451;-86
2022/11/28 00:27:17;;;;;;;17.30;11.13;;;10.30;55.80;;;;;;5097642;28;20454;-86
2022/11/28 00:29:45;;;;;;;19.77;10.93;;;10.30;55.60;;;;;;5096211;27;20473;-86
2022/11/28 00:32:12;;;;;;;19.50;12.67;;;10.20;55.20;;;;;;5115723;27;20470;-86
2022/11/28 00:34:40;;;;;;;22.90;14.13;;;9.80;56.30;;;;;;5117202;27;20474;-86
2022/11/28 00:37:07;;;;;;;19.63;11.93;;;9.90;57.00;;;;;;5117740;27;20446;-83
2022/11/28 00:39:34;;;;;;;22.93;12.97;;;9.90;56.90;;;;;;5099509;27;20494;-87
2022/11/28 00:42:01;;;;;;;18.10;11.30;;;10.10;56.10;;;;;;5116050;27;20451;-88
2022/11/28 00:44:28;;;;;;;14.77;9.80;;;10.00;55.70;;;;;;5080381;27;20569;-85
2022/11/28 00:46:56;;;;;;;15.70;10.43;;;10.00;56.00;;;;;;5095173;27;20525;-85
2022/11/28 00:49:23;;;;;;;20.63;10.80;;;10.00;56.40;;;;;;5115605;27;20875;-86
2022/11/28 00:51:50;;;;;;;16.13;11.37;;;9.60;57.50;;;;;;5097210;27;20470;-88
2022/11/28 00:54:18;;;;;;;20.40;12.33;;;9.70;57.60;;;;;;5112680;27;20458;-85
2022/11/28 00:56:45;;;;;;;19.50;11.70;;;9.70;57.70;;;;;;5115797;27;20537;-86
2022/11/28 00:59:12;;;;;;;19.53;11.17;;;9.80;57.60;;;;;;5118182;27;20462;-85
2022/11/28 01:01:41;;;;;;;22.80;11.40;;;9.80;57.40;;;;;;5115860;27;20504;-87
2022/11/28 01:04:12;;;;;;;25.83;12.43;;;10.00;56.70;;;;;;5116989;27;20453;-84
2022/11/28 01:06:41;;;;;;;22.40;12.73;;;9.80;57.30;;;;;;5116556;27;20565;-85
2022/11/28 01:09:10;;;;;;;24.70;12.73;;;9.40;58.10;;;;;;5116522;27;20450;-84
2022/11/28 01:11:38;;;;;;;20.90;12.70;;;9.50;58.10;;;;;;5094829;27;20865;-85
2022/11/28 01:14:07;;;;;;;22.50;11.73;;;9.70;58.00;;;;;;5114377;27;20469;-87
2022/11/28 01:16:34;;;;;;;23.30;12.10;;;9.70;57.80;;;;;;5115060;27;20441;-86
2022/11/28 01:19:01;;;;;;;20.93;12.40;;;9.80;57.70;;;;;;5115218;27;20460;-86
2022/11/28 01:21:30;;;;;;;23.57;13.87;;;9.90;57.70;;;;;;5115961;27;20526;-86
2022/11/28 01:23:57;;;;;;;24.63;13.57;;;9.90;57.70;;;;;;5088151;27;20490;-85
2022/11/28 01:26:26;;;;;;;22.33;12.93;;;9.90;57.60;;;;;;5116138;27;20474;-86
2022/11/28 01:28:54;;;;;;;29.67;13.93;;;9.70;57.50;;;;;;5097733;27;20448;-86
2022/11/28 01:31:23;;;;;;;23.70;13.03;;;9.80;57.50;;;;;;5114276;27;20958;-86
2022/11/28 01:33:51;;;;;;;22.30;13.77;;;9.70;57.50;;;;;;5096425;27;20841;-85
2022/11/28 01:36:20;;;;;;;24.50;13.40;;;9.80;57.60;;;;;;5115904;27;20453;-85
2022/11/28 01:38:49;;;;;;;22.00;13.97;;;9.40;57.90;;;;;;5113957;27;20434;-86
2022/11/28 01:41:20;;;;;;;24.03;12.07;;;9.70;58.10;;;;;;5096822;28;20518;-86
2022/11/28 01:44:06;;;;;;;23.43;13.10;;;9.70;57.60;;;;;;5113016;27;20459;-87
2022/11/28 01:46:34;;;;;;;26.43;14.07;;;9.80;57.50;;;;;;5096750;27;20451;-85
2022/11/28 01:49:07;;;;;;;25.37;14.10;;;9.80;57.50;;;;;;5096191;27;20458;-85
2022/11/28 01:51:36;;;;;;;23.50;13.13;;;9.70;57.20;;;;;;5114299;27;20464;-86
2022/11/28 01:54:05;;;;;;;26.07;13.07;;;9.50;57.80;;;;;;5115738;27;20435;-85
2022/11/28 01:56:39;;;;;;;22.73;14.30;;;9.70;57.80;;;;;;5077961;27;20451;-85
2022/11/28 01:59:10;;;;;;;25.10;13.90;;;9.80;57.90;;;;;;5098655;27;20486;-85
2022/11/28 02:01:37;;;;;;;22.17;12.53;;;10.00;57.10;;;;;;5096911;27;20438;-84
2022/11/28 02:04:05;;;;;;;24.17;12.90;;;10.10;57.60;;;;;;5114680;27;20497;-90
2022/11/28 02:06:33;;;;;;;24.37;13.97;;;10.10;56.80;;;;;;5095541;28;20442;-85
2022/11/28 02:09:00;;;;;;;24.93;13.67;;;10.10;56.10;;;;;;5105880;27;20890;-86
2022/11/28 02:12:02;;;;;;;23.43;13.30;;;9.90;57.50;;;;;;5116075;27;20454;-86
2022/11/28 02:14:49;;;;;;;22.43;11.83;;;9.70;57.50;;;;;;5114320;27;20442;-86
2022/11/28 02:17:25;;;;;;;29.07;13.90;;;9.70;58.10;;;;;;5113202;27;20445;-86
2022/11/28 02:20:32;;;;;;;25.87;14.07;;;9.70;58.30;;;;;;5105153;27;20570;-87
2022/11/28 02:23:05;;;;;;;21.77;12.93;;;9.80;57.90;;;;;;5115367;27;20456;-85
2022/11/28 02:25:57;;;;;;;25.17;12.83;;;10.00;56.90;;;;;;5096941;28;20449;-85
2022/11/28 02:29:00;;;;;;;26.30;12.87;;;10.00;56.80;;;;;;5113161;27;20442;-86
2022/11/28 02:31:56;;;;;;;24.27;12.20;;;10.20;56.70;;;;;;5091231;27;20477;-85
2022/11/28 02:34:30;;;;;;;23.80;12.90;;;10.20;56.60;;;;;;5113876;27;20544;-86
2022/11/28 02:37:03;;;;;;;24.07;12.93;;;10.20;56.50;;;;;;5096571;27;20534;-85
2022/11/28 02:39:35;;;;;;;23.07;13.80;;;10.20;56.30;;;;;;5113860;27;20812;-86
2022/11/28 02:42:09;;;;;;;30.80;14.70;;;10.20;56.40;;;;;;5096772;27;20442;-85
2022/11/28 02:44:43;;;;;;;27.43;13.63;;;10.20;56.20;;;;;;5112476;27;20488;-85
2022/11/28 02:47:15;;;;;;;24.73;14.20;;;10.20;56.20;;;;;;5102150;28;20562;-85
2022/11/28 02:49:51;;;;;;;24.67;14.10;;;10.20;56.10;;;;;;5113633;27;20470;-86
2022/11/28 02:52:21;;;;;;;24.20;13.53;;;10.20;56.10;;;;;;5112264;27;20466;-87
2022/11/28 02:54:50;;;;;;;21.23;12.87;;;10.20;56.10;;;;;;5091254;27;20474;-86
2022/11/28 02:57:18;;;;;;;26.53;13.60;;;10.20;56.10;;;;;;5094783;28;20438;-86
2022/11/28 02:59:48;;;;;;;22.83;13.50;;;10.20;56.10;;;;;;5095151;27;21147;-85
2022/11/28 03:02:19;;;;;;;26.80;15.40;;;10.20;56.10;;;;;;5113574;27;20451;-85
2022/11/28 03:04:55;;;;;;;30.60;15.40;;;10.20;56.10;;;;;;5098860;27;21171;-89
2022/11/28 03:07:32;;;;;;;28.97;13.93;;;10.20;56.30;;;;;;5097356;28;20438;-84
2022/11/28 03:10:18;;;;;;;29.87;14.17;;;10.10;56.30;;;;;;5096512;27;20514;-85
2022/11/28 03:12:55;;;;;;;29.67;14.00;;;10.20;56.40;;;;;;5078598;27;20580;-88
2022/11/28 03:15:30;;;;;;;25.80;14.50;;;10.10;56.30;;;;;;5093376;28;20523;-85
2022/11/28 03:18:07;;;;;;;37.33;15.87;;;10.10;56.20;;;;;;5113179;27;20449;-85
2022/11/28 03:20:46;;;;;;;25.23;14.70;;;10.00;56.40;;;;;;5082086;27;20485;-87
2022/11/28 03:23:16;;;;;;;30.43;15.60;;;10.00;56.60;;;;;;5103240;27;20441;-84
2022/11/28 03:25:54;;;;;;;28.57;15.10;;;10.00;56.70;;;;;;5117649;27;20941;-86
2022/11/28 03:28:25;;;;;;;28.13;15.00;;;10.00;56.80;;;;;;5099339;27;20474;-86
2022/11/28 03:30:57;;;;;;;27.90;14.50;;;10.00;57.00;;;;;;5107715;27;20462;-85
2022/11/28 03:33:27;;;;;;;27.27;14.73;;;10.00;56.90;;;;;;5119214;27;20478;-86
2022/11/28 03:36:00;;;;;;;25.47;14.47;;;9.90;57.20;;;;;;5117451;27;20482;-85
2022/11/28 03:38:32;;;;;;;25.17;14.90;;;9.90;57.50;;;;;;5117210;27;20513;-85
2022/11/28 03:41:07;;;;;;;22.37;13.50;;;9.50;57.20;;;;;;5097324;27;20470;-84
2022/11/28 03:43:40;;;;;;;26.33;12.50;;;9.10;58.70;;;;;;5100434;27;20442;-85
2022/11/28 03:46:11;;;;;;;31.33;14.20;;;9.00;59.20;;;;;;5117525;27;20602;-84
2022/11/28 03:48:41;;;;;;;26.03;14.73;;;8.90;59.60;;;;;;5120045;27;20929;-85
2022/11/28 03:51:15;;;;;;;25.97;15.33;;;9.10;59.10;;;;;;5099805;27;20474;-86
2022/11/28 03:53:50;;;;;;;21.97;13.73;;;9.10;59.10;;;;;;5090823;27;20572;-85
2022/11/28 03:56:24;;;;;;;29.80;13.70;;;9.20;59.10;;;;;;5114687;27;20440;-85
2022/11/28 03:58:56;;;;;;;26.53;14.00;;;9.30;59.10;;;;;;5113126;27;20441;-86
2022/11/28 04:01:30;;;;;;;24.23;14.10;;;9.50;58.70;;;;;;5099125;27;20934;-86
2022/11/28 04:04:08;;;;;;;26.10;15.33;;;9.60;58.60;;;;;;5099542;27;21009;-90
2022/11/28 04:06:44;;;;;;;27.03;14.10;;;9.70;58.50;;;;;;5082517;28;20516;-87
2022/11/28 04:09:17;;;;;;;32.83;16.57;;;9.70;58.50;;;;;;5095489;27;20482;-85
2022/11/28 04:11:49;;;;;;;28.83;15.27;;;9.80;58.30;;;;;;5117323;27;20570;-85
2022/11/28 04:14:22;;;;;;;30.77;15.97;;;9.50;57.90;;;;;;5101219;27;20477;-85
2022/11/28 04:16:54;;;;;;;27.93;15.70;;;9.20;58.90;;;;;;5118500;27;20499;-86
2022/11/28 04:19:28;;;;;;;27.53;14.73;;;9.40;59.20;;;;;;5118776;27;20458;-85
2022/11/28 04:22:01;;;;;;;29.50;15.80;;;9.40;59.20;;;;;;5116644;27;20933;-86
2022/11/28 04:24:34;;;;;;;27.40;14.37;;;9.50;58.40;;;;;;5114331;27;20467;-87
2022/11/28 04:27:05;;;;;;;30.87;15.23;;;9.60;58.60;;;;;;5117807;27;20485;-87
2022/11/28 04:29:34;;;;;;;26.80;16.13;;;9.50;58.20;;;;;;5114355;27;20555;-87
2022/11/28 04:32:03;;;;;;;29.00;15.13;;;9.60;58.40;;;;;;5115150;27;20466;-85
2022/11/28 04:34:34;;;;;;;30.47;15.97;;;9.60;58.40;;;;;;5115475;27;20537;-86
2022/11/28 04:37:06;;;;;;;26.10;14.73;;;9.60;58.20;;;;;;5090195;27;20446;-85
2022/11/28 04:39:34;;;;;;;25.63;14.80;;;9.60;58.10;;;;;;5112624;27;21021;-88
2022/11/28 04:42:07;;;;;;;24.77;13.10;;;9.70;58.80;;;;;;5111075;27;21154;-85
2022/11/28 04:44:40;;;;;;;26.50;14.70;;;9.60;57.30;;;;;;5114928;27;21032;-88
2022/11/28 04:47:07;;;;;;;30.40;15.20;;;9.70;57.80;;;;;;5116337;27;20490;-85
2022/11/28 04:49:35;;;;;;;23.17;14.07;;;9.80;57.80;;;;;;5117511;27;20483;-88
2022/11/28 04:52:08;;;;;;;23.43;12.90;;;10.00;56.90;;;;;;5113508;27;20494;-85
2022/11/28 04:54:43;;;;;;;25.07;14.10;;;10.00;56.40;;;;;;5097613;27;20536;-85
2022/11/28 04:57:15;;;;;;;23.97;14.17;;;9.90;57.10;;;;;;5104827;27;20536;-84
2022/11/28 04:59:43;;;;;;;24.33;13.63;;;9.70;57.00;;;;;;5098797;27;20485;-85
2022/11/28 05:02:13;;;;;;;27.70;14.10;;;9.60;57.10;;;;;;5116028;27;20465;-86
2022/11/28 05:04:42;;;;;;;24.67;14.37;;;9.70;57.30;;;;;;5101392;27;21062;-86
2022/11/28 05:07:11;;;;;;;29.70;14.40;;;9.70;57.10;;;;;;5118299;27;20458;-85
2022/11/28 05:09:38;;;;;;;33.97;16.60;;;9.80;57.20;;;;;;5099701;27;20465;-89
2022/11/28 05:12:06;;;;;;;31.33;17.27;;;9.90;57.30;;;;;;5083298;27;20547;-85
2022/11/28 05:14:33;;;;;;;31.83;15.97;;;10.00;56.50;;;;;;5098618;27;20450;-88
2022/11/28 05:17:00;;;;;;;25.90;14.47;;;10.00;56.60;;;;;;5096030;27;20460;-86
2022/11/28 05:19:27;;;;;;;26.33;13.83;;;10.00;55.90;;;;;;5082207;27;20586;-87
2022/11/28 05:21:54;;;;;;;24.50;13.00;;;9.70;56.60;;;;;;5114172;27;20545;-85
2022/11/28 05:24:22;;;;;;;27.40;14.00;;;9.60;57.50;;;;;;5087915;27;20435;-85
2022/11/28 05:26:50;;;;;;;23.07;13.60;;;9.70;57.20;;;;;;5088528;27;20522;-85
2022/11/28 05:29:17;;;;;;;34.43;15.20;;;9.50;57.50;;;;;;5098143;27;20514;-85
2022/11/28 05:31:44;;;;;;;26.47;14.90;;;9.50;57.90;;;;;;5114894;27;20574;-85
2022/11/28 05:34:11;;;;;;;29.30;14.87;;;9.40;58.00;;;;;;5114612;27;20997;-86
2022/11/28 05:36:38;;;;;;;24.63;13.20;;;9.50;57.90;;;;;;5093356;27;20442;-86
2022/11/28 05:39:05;;;;;;;28.37;14.20;;;9.50;57.60;;;;;;5084871;27;20478;-85
2022/11/28 05:41:35;;;;;;;26.97;13.73;;;9.50;57.70;;;;;;5085602;27;20438;-86
2022/11/28 05:44:02;;;;;;;32.27;13.17;;;9.60;57.70;;;;;;5085022;27;20517;-87
2022/11/28 05:46:30;;;;;;;26.00;13.40;;;9.70;57.80;;;;;;5100076;27;20487;-87
2022/11/28 05:48:57;;;;;;;29.83;13.83;;;9.80;57.50;;;;;;5112739;27;20482;-86
2022/11/28 05:51:25;;;;;;;22.93;13.63;;;9.70;57.40;;;;;;5079418;27;20530;-86
2022/11/28 05:53:52;;;;;;;25.77;12.80;;;9.80;57.20;;;;;;5112709;27;20506;-85
2022/11/28 05:56:21;;;;;;;25.00;14.20;;;9.80;57.00;;;;;;5105120;27;20545;-85
2022/11/28 05:58:50;;;;;;;25.67;14.30;;;9.80;57.00;;;;;;5096360;27;20451;-87
2022/11/28 06:01:19;;;;;;;27.63;14.47;;;9.70;57.30;;;;;;5113698;27;20463;-86
2022/11/28 06:03:46;;;;;;;32.50;15.30;;;9.80;57.30;;;;;;5113462;27;21021;-86
2022/11/28 06:06:15;;;;;;;28.20;16.00;;;9.80;57.20;;;;;;5114216;27;20442;-86
2022/11/28 06:08:43;;;;;;;36.57;19.67;;;9.80;57.20;;;;;;5098187;27;20457;-87
2022/11/28 06:11:10;;;;;;;31.50;18.60;;;9.90;57.20;;;;;;5115881;27;20591;-88
2022/11/28 06:13:38;;;;;;;37.30;21.43;;;9.90;57.00;;;;;;5114252;27;21046;-84
2022/11/28 06:16:09;;;;;;;43.20;22.33;;;9.80;57.00;;;;;;5095705;27;20535;-84
2022/11/28 06:18:36;;;;;;;42.83;23.30;;;9.80;57.00;;;;;;5094631;27;20537;-88
2022/11/28 06:21:05;;;;;;;40.60;19.10;;;9.90;56.90;;;;;;5096848;27;20966;-88
2022/11/28 06:23:33;;;;;;;29.20;15.20;;;9.90;56.90;;;;;;5114212;27;20442;-85
2022/11/28 06:26:06;;;;;;;27.70;14.80;;;9.90;56.90;;;;;;5095967;27;20455;-85
2022/11/28 06:28:33;;;;;;;27.57;14.57;;;9.80;57.00;;;;;;5094437;27;21232;-86
2022/11/28 06:31:00;;;;;;;28.60;14.43;;;9.80;57.10;;;;;;5100812;27;20481;-87
2022/11/28 06:33:29;;;;;;;27.03;14.60;;;9.70;57.20;;;;;;5095361;28;20590;-85
2022/11/28 06:36:00;;;;;;;29.00;14.33;;;9.60;57.10;;;;;;5120441;27;20453;-85
2022/11/28 06:38:27;;;;;;;26.30;16.40;;;9.50;57.10;;;;;;5117101;27;20458;-86
2022/11/28 06:40:56;;;;;;;32.00;15.20;;;9.50;57.10;;;;;;5079875;27;22327;-85
2022/11/28 06:43:24;;;;;;;31.40;18.13;;;9.40;57.40;;;;;;5093847;28;20534;-85
2022/11/28 06:45:51;;;;;;;36.33;18.00;;;9.40;57.30;;;;;;5079249;27;20443;-86
2022/11/28 06:48:18;;;;;;;64.77;32.23;;;9.40;57.30;;;;;;5087732;28;20565;-85
2022/11/28 06:50:47;;;;;;;73.43;32.47;;;9.40;57.40;;;;;;5081875;27;20487;-86
2022/11/28 06:53:14;;;;;;;50.27;22.50;;;9.40;57.30;;;;;;5103994;27;20553;-85
2022/11/28 06:55:42;;;;;;;44.77;24.03;;;9.30;57.60;;;;;;5106631;27;20847;-85
2022/11/28 06:58:10;;;;;;;55.30;27.00;;;9.40;57.50;;;;;;5089873;27;21124;-83
2022/11/28 07:00:38;;;;;;;38.60;20.20;;;9.40;57.30;;;;;;5100312;27;20496;-83
2022/11/28 07:03:05;;;;;;;50.30;25.17;;;9.40;57.40;;;;;;5110183;27;20469;-84
2022/11/28 07:05:32;;;;;;;113.60;48.10;;;9.50;57.50;;;;;;5106266;27;20510;-87
2022/11/28 07:08:00;;;;;;;88.07;41.73;;;9.50;57.40;;;;;;5109300;27;20485;-84
2022/11/28 07:10:28;;;;;;;67.93;32.23;;;9.60;57.30;;;;;;5111157;27;20553;-83
2022/11/28 07:12:55;;;;;;;58.87;29.10;;;9.70;57.40;;;;;;5091064;27;20478;-84
2022/11/28 07:15:23;;;;;;;39.27;22.20;;;9.60;57.20;;;;;;5111846;27;20549;-84
2022/11/28 07:17:50;;;;;;;48.63;25.40;;;9.50;57.30;;;;;;5111393;27;20453;-87
2022/11/28 07:20:17;;;;;;;47.60;24.97;;;9.40;57.30;;;;;;5106841;27;21368;-84
2022/11/28 07:22:46;;;;;;;40.63;22.70;;;9.50;57.30;;;;;;5100544;27;20455;-87
2022/11/28 07:25:15;;;;;;;35.47;18.77;;;9.40;57.30;;;;;;5110967;27;20547;-84
2022/11/28 07:27:42;;;;;;;50.30;25.20;;;9.30;57.30;;;;;;5111069;27;20920;-82
2022/11/28 07:30:10;;;;;;;40.10;21.77;;;8.90;58.20;;;;;;5109763;27;20997;-83
2022/11/28 07:32:40;;;;;;;68.93;32.10;;;9.10;58.60;;;;;;5110417;27;20471;-85
2022/11/28 07:35:08;;;;;;;41.03;20.73;;;9.30;58.20;;;;;;5109932;27;20519;-84
2022/11/28 07:37:35;;;;;;;46.23;23.03;;;9.40;57.80;;;;;;5110617;27;21204;-84
2022/11/28 07:40:03;;;;;;;45.70;20.17;;;9.50;57.50;;;;;;5109380;27;20455;-85
2022/11/28 07:42:31;;;;;;;35.60;17.63;;;9.50;57.30;;;;;;5099734;27;20446;-84
2022/11/28 07:45:04;;;;;;;31.20;16.87;;;9.60;57.50;;;;;;5095103;27;20457;-85
2022/11/28 07:47:31;;;;;;;31.03;16.83;;;9.60;57.60;;;;;;4999268;28;20489;-84
2022/11/28 07:49:58;;;;;;;34.30;18.13;;;9.70;57.40;;;;;;5036165;28;20633;-84
2022/11/28 07:52:25;;;;;;;28.70;15.67;;;9.70;57.20;;;;;;5036735;28;20453;-87
2022/11/28 07:54:52;;;;;;;30.53;15.60;;;9.70;56.90;;;;;;5032222;28;20463;-87
2022/11/28 07:57:19;;;;;;;29.47;15.13;;;9.70;56.90;;;;;;5040885;28;20535;-84
2022/11/28 07:59:47;;;;;;;31.20;16.67;;;9.70;57.10;;;;;;5040107;28;20480;-85
2022/11/28 08:02:14;;;;;;;28.83;14.50;;;9.70;57.20;;;;;;5040531;28;20469;-83
2022/11/28 08:04:41;;;;;;;27.33;15.47;;;9.70;57.10;;;;;;5039146;28;20452;-84
2022/11/28 08:07:12;;;;;;;32.10;16.03;;;9.70;57.40;;;;;;5024175;28;20478;-85
2022/11/28 08:09:39;;;;;;;33.67;15.90;;;9.70;57.30;;;;;;4957598;28;20776;-84
2022/11/28 08:12:06;;;;;;;30.93;17.33;;;9.80;57.60;;;;;;5017156;28;20458;-84
2022/11/28 08:14:33;;;;;;;34.03;16.83;;;9.90;57.50;;;;;;5018961;28;21198;-85
2022/11/28 08:17:02;;;;;;;54.90;24.73;;;9.90;57.30;;;;;;5009178;28;21316;-86
2022/11/28 08:19:29;;;;;;;42.37;21.00;;;9.90;57.30;;;;;;5021357;28;20464;-83
2022/11/28 08:21:56;;;;;;;38.10;19.33;;;9.90;57.00;;;;;;5056034;28;20460;-84
2022/11/28 08:24:23;;;;;;;39.50;21.30;;;10.00;56.00;;;;;;5056071;28;21301;-84
2022/11/28 08:26:50;;;;;;;33.77;17.23;;;9.90;56.90;;;;;;5053384;28;20528;-85
2022/11/28 08:29:17;;;;;;;31.47;17.10;;;9.70;57.30;;;;;;5011326;28;21245;-84
2022/11/28 08:31:44;;;;;;;33.00;16.93;;;9.80;57.40;;;;;;5013161;28;20540;-84
2022/11/28 08:34:12;;;;;;;38.07;16.73;;;9.80;57.40;;;;;;5036060;28;20588;-84
2022/11/28 08:36:40;;;;;;;35.83;19.77;;;9.90;57.40;;;;;;5037181;28;20565;-86
2022/11/28 08:39:07;;;;;;;29.20;16.10;;;10.00;56.50;;;;;;5037446;28;20466;-84
2022/11/28 08:41:34;;;;;;;36.53;15.07;;;10.00;56.50;;;;;;5038771;28;20463;-83
2022/11/28 08:44:01;;;;;;;32.30;17.80;;;9.90;57.50;;;;;;5036993;28;21393;-85
2022/11/28 08:46:28;;;;;;;32.13;17.87;;;10.00;57.30;;;;;;5037296;28;20449;-83
2022/11/28 08:48:55;;;;;;;35.23;17.30;;;10.00;56.30;;;;;;5036720;28;20450;-83
2022/11/28 08:51:24;;;;;;;94.23;39.30;;;9.90;57.30;;;;;;5038068;28;20908;-86
2022/11/28 08:53:51;;;;;;;81.47;33.93;;;9.90;57.20;;;;;;5036850;28;20477;-85
2022/11/28 08:56:19;;;;;;;57.70;29.23;;;9.80;57.40;;;;;;5041446;28;20442;-83
2022/11/28 08:58:46;;;;;;;45.93;21.27;;;9.80;57.40;;;;;;5041953;28;20458;-86
2022/11/28 09:01:19;;;;;;;33.37;16.90;;;9.80;57.50;;;;;;5035450;28;20864;-84
2022/11/28 09:03:46;;;;;;;34.90;16.73;;;9.80;57.40;;;;;;4975626;28;20457;-85
2022/11/28 09:06:14;;;;;;;32.30;17.17;;;9.80;57.50;;;;;;5037807;28;20901;-85
2022/11/28 09:08:42;;;;;;;34.87;20.47;;;9.80;57.30;;;;;;5039909;28;20455;-84
2022/11/28 09:11:10;;;;;;;32.07;16.00;;;9.80;57.50;;;;;;5036220;28;20477;-84
2022/11/28 09:13:38;;;;;;;25.17;14.60;;;9.90;57.50;;;;;;5040714;28;20980;-84
2022/11/28 09:16:05;;;;;;;29.70;15.57;;;9.90;57.30;;;;;;5041205;28;20480;-84
2022/11/28 09:18:33;;;;;;;26.67;14.67;;;9.90;57.50;;;;;;5022984;28;20464;-83
2022/11/28 09:21:01;;;;;;;45.60;22.23;;;9.60;57.90;;;;;;5038485;28;20465;-84
2022/11/28 09:23:29;;;;;;;38.83;19.43;;;9.50;58.00;;;;;;5041641;28;20480;-82
2022/11/28 09:25:57;;;;;;;33.20;16.07;;;9.60;57.90;;;;;;5041140;28;20465;-83
2022/11/28 09:28:27;;;;;;;30.33;16.07;;;9.80;57.90;;;;;;5041940;28;21051;-82
2022/11/28 09:31:01;;;;;;;34.80;16.73;;;9.80;57.60;;;;;;5042137;28;20508;-84
2022/11/28 09:33:28;;;;;;;29.03;15.30;;;9.90;57.50;;;;;;5018132;28;20982;-83
2022/11/28 09:35:55;;;;;;;30.80;15.13;;;10.00;56.40;;;;;;5039916;28;20892;-84
2022/11/28 09:38:22;;;;;;;27.53;15.20;;;9.80;57.70;;;;;;5041762;28;20555;-82
2022/11/28 09:40:50;;;;;;;30.67;15.70;;;9.70;58.00;;;;;;5042400;28;20469;-84
2022/11/28 09:43:23;;;;;;;28.73;14.77;;;9.70;58.40;;;;;;5022207;28;21451;-84
2022/11/28 09:45:52;;;;;;;36.10;14.37;;;9.80;58.10;;;;;;5040223;28;20894;-83
2022/11/28 09:48:26;;;;;;;29.60;15.13;;;10.10;57.10;;;;;;5022990;28;20575;-84
2022/11/28 09:50:57;;;;;;;30.07;15.90;;;10.20;56.40;;;;;;5041633;28;20484;-85
2022/11/28 09:53:30;;;;;;;32.37;16.77;;;9.80;57.70;;;;;;5040851;28;20480;-84
2022/11/28 09:56:03;;;;;;;33.60;17.00;;;9.40;59.10;;;;;;5040522;28;20446;-83
2022/11/28 09:58:38;;;;;;;33.03;15.77;;;9.50;59.00;;;;;;5040581;28;20560;-86
2022/11/28 10:01:15;;;;;;;31.87;16.80;;;9.80;58.80;;;;;;5023823;28;20476;-85
2022/11/28 10:03:51;;;;;;;24.90;14.27;;;9.90;58.10;;;;;;5041146;28;20434;-85
2022/11/28 10:06:21;;;;;;;30.23;16.27;;;10.00;56.90;;;;;;5023086;28;20449;-84
2022/11/28 10:09:14;;;;;;;30.63;15.97;;;10.20;56.40;;;;;;5023136;28;20447;-81
2022/11/28 10:11:49;;;;;;;32.00;14.63;;;10.00;56.60;;;;;;5040576;28;20445;-87
2022/11/28 10:14:42;;;;;;;28.33;15.00;;;10.00;57.20;;;;;;5019308;28;20927;-85
2022/11/28 10:17:23;;;;;;;33.57;16.03;;;10.20;56.80;;;;;;5018459;28;20539;-84
2022/11/28 10:19:54;;;;;;;28.60;16.77;;;10.30;56.20;;;;;;5039836;28;20491;-83
2022/11/28 10:22:32;;;;;;;27.87;17.17;;;10.30;56.00;;;;;;5041531;28;20993;-85
2022/11/28 10:25:06;;;;;;;35.53;19.63;;;10.50;55.80;;;;;;5039538;28;20445;-83
2022/11/28 10:27:34;;;;;;;27.63;17.20;;;10.50;55.70;;;;;;5042104;28;20473;-84
2022/11/28 10:30:08;;;;;;;29.50;16.57;;;10.30;55.70;;;;;;5040892;28;20969;-84
2022/11/28 10:32:39;;;;;;;29.70;16.27;;;9.80;57.60;;;;;;5039975;28;20461;-84
2022/11/28 10:35:17;;;;;;;30.30;15.20;;;9.70;58.10;;;;;;5035870;28;20564;-84
2022/11/28 10:37:44;;;;;;;34.80;16.17;;;9.70;58.10;;;;;;5021769;28;20438;-85
2022/11/28 10:40:21;;;;;;;28.13;15.13;;;9.60;58.40;;;;;;5037460;28;20477;-83
2022/11/28 10:42:55;;;;;;;25.60;13.57;;;9.90;57.90;;;;;;5038083;28;20448;-83
2022/11/28 10:45:29;;;;;;;27.43;15.43;;;9.90;57.50;;;;;;5034407;28;20775;-83
2022/11/28 10:48:29;;;;;;;34.37;17.40;;;9.70;58.00;;;;;;5039155;28;20457;-85
2022/11/28 10:51:05;;;;;;;24.50;13.70;;;10.00;57.50;;;;;;5039376;28;21024;-82
2022/11/28 10:53:43;;;;;;;24.90;14.13;;;10.30;57.10;;;;;;5040288;28;20449;-83
2022/11/28 10:56:24;;;;;;;27.07;13.87;;;10.20;56.80;;;;;;5021224;28;20449;-84
2022/11/28 10:58:58;;;;;;;35.40;16.17;;;10.00;57.10;;;;;;5016434;28;20464;-84
2022/11/28 11:01:31;;;;;;;37.93;19.30;;;10.30;56.70;;;;;;5014357;28;20461;-83
2022/11/28 11:03:58;;;;;;;32.07;16.50;;;10.20;56.20;;;;;;5037681;28;20442;-83
2022/11/28 11:06:25;;;;;;;27.20;15.70;;;10.00;57.10;;;;;;5022480;28;21077;-86
2022/11/28 11:08:53;;;;;;;29.50;15.70;;;9.90;58.00;;;;;;5039242;28;20446;-84
2022/11/28 11:11:26;;;;;;;27.10;14.50;;;9.70;58.60;;;;;;5039091;28;20566;-86
2022/11/28 11:14:00;;;;;;;29.33;15.60;;;9.70;58.60;;;;;;5039230;28;20508;-86
2022/11/28 11:16:48;;;;;;;27.60;15.67;;;9.70;58.70;;;;;;5016815;28;20446;-85
2022/11/28 11:19:28;;;;;;;29.00;15.90;;;9.60;58.90;;;;;;5037600;28;21237;-85
2022/11/28 11:22:02;;;;;;;27.73;15.03;;;9.90;58.30;;;;;;5022444;28;20544;-84
2022/11/28 11:24:30;;;;;;;26.10;14.70;;;9.80;58.30;;;;;;5040501;28;20442;-81
2022/11/28 11:27:14;;;;;;;27.40;16.00;;;9.80;58.60;;;;;;5038936;28;20949;-83
2022/11/28 11:29:42;;;;;;;29.83;15.87;;;9.50;59.00;;;;;;5038936;28;20914;-82
2022/11/28 11:32:20;;;;;;;30.93;16.63;;;9.70;59.00;;;;;;5022914;28;20456;-83
2022/11/28 11:34:48;;;;;;;36.97;17.27;;;10.10;57.80;;;;;;5037612;28;20576;-82
2022/11/28 11:37:21;;;;;;;28.73;15.57;;;10.40;57.20;;;;;;5038920;28;20453;-82
2022/11/28 11:39:50;;;;;;;29.53;13.83;;;10.60;56.50;;;;;;5041105;28;21071;-82
2022/11/28 11:42:22;;;;;;;29.57;15.37;;;10.70;56.40;;;;;;5043438;28;20450;-82
2022/11/28 11:44:50;;;;;;;34.23;18.40;;;10.70;56.80;;;;;;5018224;28;20484;-85
2022/11/28 11:47:19;;;;;;;30.70;16.47;;;10.70;56.00;;;;;;5041287;28;20468;-83
2022/11/28 11:49:48;;;;;;;30.90;15.47;;;10.20;56.70;;;;;;5042601;28;20469;-83
2022/11/28 11:52:20;;;;;;;30.40;15.77;;;10.10;57.60;;;;;;5043029;28;20449;-83
2022/11/28 11:54:58;;;;;;;25.37;15.50;;;10.20;57.60;;;;;;5043344;28;20518;-82
2022/11/28 11:57:27;;;;;;;26.80;15.20;;;10.50;57.10;;;;;;5042587;28;21026;-84
2022/11/28 11:59:58;;;;;;;30.60;15.93;;;10.50;56.90;;;;;;5043371;28;20556;-82
2022/11/28 12:02:32;;;;;;;32.70;16.77;;;10.50;56.60;;;;;;5043293;28;20465;-85
2022/11/28 12:05:04;;;;;;;31.87;15.90;;;10.40;57.00;;;;;;5042623;28;20452;-84
2022/11/28 12:07:37;;;;;;;30.40;15.13;;;10.30;57.40;;;;;;5042468;28;20449;-86
2022/11/28 12:10:07;;;;;;;31.40;15.60;;;10.50;57.30;;;;;;5041883;28;20561;-83
2022/11/28 12:12:37;;;;;;;32.20;17.13;;;10.30;57.00;;;;;;5044261;28;20454;-83
2022/11/28 12:15:11;;;;;;;35.93;15.33;;;10.20;57.60;;;;;;5041137;28;20512;-84
2022/11/28 12:17:53;;;;;;;35.93;18.40;;;10.40;57.50;;;;;;5023547;28;20536;-82
2022/11/28 12:20:33;;;;;;;31.13;17.87;;;10.30;57.40;;;;;;5042500;28;20477;-82
2022/11/28 12:23:11;;;;;;;27.30;17.40;;;10.20;57.50;;;;;;5042086;28;20481;-82
2022/11/28 12:25:49;;;;;;;28.57;16.93;;;10.40;57.60;;;;;;5043136;28;20531;-82
2022/11/28 12:28:31;;;;;;;32.23;15.40;;;10.30;57.40;;;;;;5042080;28;20536;-84
2022/11/28 12:31:05;;;;;;;34.90;16.03;;;10.40;57.50;;;;;;5024523;28;20469;-82
2022/11/28 12:33:45;;;;;;;28.00;15.20;;;10.40;57.40;;;;;;5041991;28;20480;-86
2022/11/28 12:36:20;;;;;;;26.77;13.17;;;10.60;57.30;;;;;;5041321;28;20468;-83
2022/11/28 12:39:12;;;;;;;29.90;14.93;;;10.60;56.80;;;;;;5042558;28;20455;-84
2022/11/28 12:41:56;;;;;;;27.17;14.90;;;10.60;56.80;;;;;;5042510;28;20890;-83
2022/11/28 12:44:34;;;;;;;27.50;15.30;;;10.40;57.40;;;;;;5039474;28;20873;-83
2022/11/28 12:47:09;;;;;;;49.47;32.73;;;10.70;57.00;;;;;;5038463;28;20449;-83
2022/11/28 12:49:46;;;;;;;30.50;15.97;;;11.00;56.60;;;;;;5037973;28;20469;-83
2022/11/28 12:52:23;;;;;;;27.27;15.27;;;11.10;56.00;;;;;;5038071;28;20470;-83